createdAt,value
2023-04-17T00:01:46.368Z,43.95
2023-04-17T00:04:32.035Z,43.47
2023-04-17T00:07:22.739Z,44.80
2023-04-17T00:10:10.080Z,46.67
2023-04-17T00:12:55.347Z,48.58
2023-04-17T00:15:40.758Z,47.08
2023-04-17T00:18:26.327Z,45.78
2023-04-17T00:21:11.446Z,46.58
2023-04-17T00:23:56.770Z,50.15
2023-04-17T00:26:42.362Z,52.60
2023-04-17T00:29:27.782Z,52.15
2023-04-17T00:32:13.828Z,51.58
2023-04-17T00:34:59.189Z,47.92
2023-04-17T00:37:44.547Z,40.85
2023-04-17T00:40:30.137Z,45.55
2023-04-17T00:43:15.700Z,43.92
2023-04-17T00:46:02.114Z,36.65
2023-04-17T00:48:48.402Z,42.53
2023-04-17T00:51:34.138Z,37.05
2023-04-17T00:54:22.404Z,39.88
2023-04-17T00:57:07.998Z,38.05
2023-04-17T00:59:54.250Z,35.60
2023-04-17T01:02:40.171Z,34.75
2023-04-17T01:05:27.345Z,36.53
2023-04-17T01:08:12.551Z,35.83
2023-04-17T01:10:58.117Z,41.00
2023-04-17T01:13:45.716Z,35.70
2023-04-17T01:16:31.044Z,41.58
2023-04-17T01:19:17.492Z,37.30
2023-04-17T01:22:02.770Z,36.60
2023-04-17T01:24:50.306Z,36.88
2023-04-17T01:27:35.691Z,39.05
2023-04-17T01:30:21.364Z,40.92
2023-04-17T01:33:15.905Z,42.25
2023-04-17T01:36:01.442Z,40.33
2023-04-17T01:38:46.963Z,46.45
2023-04-17T01:41:32.574Z,43.15
2023-04-17T01:44:18.288Z,41.05
2023-04-17T01:47:03.716Z,38.97
2023-04-17T01:49:49.128Z,40.17
2023-04-17T01:52:34.870Z,38.95
2023-04-17T01:55:20.368Z,41.88
2023-04-17T01:58:05.852Z,40.72
2023-04-17T02:00:51.892Z,41.88
2023-04-17T02:03:37.788Z,35.65
2023-04-17T02:06:23.205Z,39.53
2023-04-17T02:09:08.977Z,45.67
2023-04-17T02:11:57.426Z,45.45
2023-04-17T02:14:43.009Z,38.22
2023-04-17T02:17:28.106Z,51.25
2023-04-17T02:20:14.298Z,49.30
2023-04-17T02:23:00.589Z,41.55
2023-04-17T02:25:46.278Z,41.92
2023-04-17T02:28:33.734Z,39.78
2023-04-17T02:31:20.688Z,41.60
2023-04-17T02:34:06.328Z,31.92
2023-04-17T02:36:52.546Z,37.03
2023-04-17T02:39:39.832Z,36.05
2023-04-17T02:42:25.393Z,40.63
2023-04-17T02:45:11.305Z,35.33
2023-04-17T02:47:58.454Z,31.48
2023-04-17T02:50:43.979Z,32.92
2023-04-17T02:53:34.003Z,29.27
2023-04-17T02:56:19.241Z,29.80
2023-04-17T02:59:04.740Z,31.42
2023-04-17T03:01:50.820Z,33.33
2023-04-17T03:04:38.947Z,29.20
2023-04-17T03:07:27.347Z,29.13
2023-04-17T03:10:12.504Z,27.80
2023-04-17T03:12:57.807Z,26.52
2023-04-17T03:15:43.220Z,27.95
2023-04-17T03:18:28.445Z,24.50
2023-04-17T03:21:14.281Z,26.52
2023-04-17T03:23:59.597Z,26.45
2023-04-17T03:26:44.895Z,24.55
2023-04-17T03:29:35.247Z,25.05
2023-04-17T03:32:21.079Z,23.90
2023-04-17T03:35:07.061Z,28.70
2023-04-17T03:37:52.737Z,29.98
2023-04-17T03:40:38.165Z,27.13
2023-04-17T03:43:24.207Z,25.73
2023-04-17T03:46:09.972Z,24.42
2023-04-17T03:48:57.099Z,22.48
2023-04-17T03:51:42.750Z,30.48
2023-04-17T03:54:36.721Z,26.33
2023-04-17T03:57:24.087Z,24.08
2023-04-17T04:00:12.757Z,24.80
2023-04-17T04:03:04.622Z,24.35
2023-04-17T04:05:57.189Z,25.38
2023-04-17T04:08:42.503Z,28.33
2023-04-17T04:11:28.208Z,23.02
2023-04-17T04:14:13.550Z,24.48
2023-04-17T04:16:59.674Z,25.48
2023-04-17T04:19:45.999Z,31.70
2023-04-17T04:22:31.282Z,26.45
2023-04-17T04:25:17.214Z,29.63
2023-04-17T04:28:10.369Z,30.63
2023-04-17T04:30:58.565Z,27.52
2023-04-17T04:33:47.856Z,25.80
2023-04-17T04:36:36.339Z,24.58
2023-04-17T04:39:41.762Z,29.58
2023-04-17T04:42:29.364Z,26.67
2023-04-17T04:45:25.857Z,30.65
2023-04-17T04:48:11.719Z,31.95
2023-04-17T04:50:57.295Z,33.85
2023-04-17T04:53:43.076Z,32.10
2023-04-17T04:56:32.934Z,32.30
2023-04-17T04:59:18.491Z,37.28
2023-04-17T05:02:13.380Z,30.75
2023-04-17T05:04:58.975Z,34.08
2023-04-17T05:07:44.456Z,32.40
2023-04-17T05:10:32.907Z,35.50
2023-04-17T05:13:21.906Z,34.15
2023-04-17T05:16:07.938Z,34.80
2023-04-17T05:18:53.593Z,37.53
2023-04-17T05:21:48.905Z,35.75
2023-04-17T05:24:36.773Z,36.05
2023-04-17T05:27:22.161Z,36.60
2023-04-17T05:30:08.727Z,36.88
2023-04-17T05:32:54.707Z,38.13
2023-04-17T05:35:49.906Z,39.47
2023-04-17T05:38:35.383Z,39.95
2023-04-17T05:41:24.312Z,33.83
2023-04-17T05:44:09.885Z,37.88
2023-04-17T05:46:57.472Z,40.28
2023-04-17T05:49:43.857Z,35.97
2023-04-17T05:52:29.257Z,39.40
2023-04-17T05:55:15.340Z,35.83
2023-04-17T05:58:10.439Z,45.95
2023-04-17T06:01:08.438Z,39.92
2023-04-17T06:03:54.034Z,39.22
2023-04-17T06:06:44.239Z,44.30
2023-04-17T06:09:29.934Z,40.85
2023-04-17T06:12:16.172Z,50.00
2023-04-17T06:15:09.223Z,40.70
2023-04-17T06:17:56.404Z,40.70
2023-04-17T06:20:42.190Z,40.58
2023-04-17T06:23:27.728Z,43.95
2023-04-17T06:26:13.793Z,39.85
2023-04-17T06:28:59.145Z,41.88
2023-04-17T06:31:46.430Z,42.47
2023-04-17T06:34:34.371Z,48.60
2023-04-17T06:37:19.875Z,50.33
2023-04-17T06:40:07.105Z,47.20
2023-04-17T06:42:52.562Z,41.78
2023-04-17T06:45:42.347Z,44.90
2023-04-17T06:48:28.009Z,42.83
2023-04-17T06:51:13.271Z,43.15
2023-04-17T06:53:59.360Z,39.28
2023-04-17T06:56:44.498Z,40.20
2023-04-17T06:59:29.864Z,39.88
2023-04-17T07:02:15.688Z,40.05
2023-04-17T07:05:01.476Z,38.70
2023-04-17T07:07:46.736Z,36.40
2023-04-17T07:10:31.979Z,40.67
2023-04-17T07:13:17.668Z,41.60
2023-04-17T07:16:03.678Z,34.65
2023-04-17T07:18:52.809Z,37.40
2023-04-17T07:21:37.976Z,36.03
2023-04-17T07:24:23.336Z,37.25
2023-04-17T07:27:08.782Z,38.83
2023-04-17T07:29:56.991Z,35.65
2023-04-17T07:32:42.486Z,37.38
2023-04-17T07:35:28.359Z,34.85
2023-04-17T07:38:13.573Z,34.60
2023-04-17T07:40:59.575Z,36.55
2023-04-17T07:43:44.978Z,39.20
2023-04-17T07:46:30.614Z,38.15
2023-04-17T07:49:16.259Z,37.85
2023-04-17T07:52:02.083Z,34.72
2023-04-17T07:54:47.374Z,34.42
2023-04-17T07:57:32.897Z,34.83
2023-04-17T08:00:19.189Z,35.25
2023-04-17T08:03:04.467Z,31.80
2023-04-17T08:05:53.894Z,30.05
2023-04-17T08:08:39.406Z,31.38
2023-04-17T08:11:24.783Z,28.90
2023-04-17T08:14:11.487Z,27.92
2023-04-17T08:16:56.661Z,27.42
2023-04-17T08:19:41.917Z,26.75
2023-04-17T08:22:28.650Z,24.30
2023-04-17T08:25:14.305Z,24.75
2023-04-17T08:27:59.730Z,25.75
2023-04-17T08:30:45.102Z,22.42
2023-04-17T08:33:30.674Z,23.10
2023-04-17T08:36:16.385Z,23.48
2023-04-17T08:39:01.756Z,25.10
2023-04-17T08:41:57.382Z,24.30
2023-04-17T08:44:42.948Z,23.20
2023-04-17T08:47:28.680Z,21.38
2023-04-17T08:50:15.426Z,20.20
2023-04-17T08:53:00.541Z,22.95
2023-04-17T08:55:46.780Z,21.25
2023-04-17T08:58:36.133Z,22.17
2023-04-17T09:01:21.908Z,24.35
2023-04-17T09:04:07.723Z,22.27
2023-04-17T09:06:54.246Z,22.55
2023-04-17T09:09:53.548Z,21.92
2023-04-17T09:12:41.827Z,22.23
2023-04-17T09:15:27.207Z,19.45
2023-04-17T09:18:30.957Z,20.27
2023-04-17T09:21:18.826Z,21.63
2023-04-17T09:24:06.330Z,20.10
2023-04-17T09:26:51.798Z,20.50
2023-04-17T09:30:02.595Z,22.52
2023-04-17T09:32:48.541Z,21.55
2023-04-17T09:35:38.847Z,23.48
2023-04-17T09:38:38.366Z,23.83
2023-04-17T09:41:29.169Z,22.50
2023-04-17T09:44:26.933Z,20.35
2023-04-17T09:47:15.532Z,20.75
2023-04-17T09:50:02.657Z,22.63
2023-04-17T09:52:52.630Z,23.35
2023-04-17T09:55:41.613Z,22.90
2023-04-17T09:58:27.135Z,20.38
2023-04-17T10:01:13.989Z,24.08
2023-04-17T10:04:01.239Z,22.17
2023-04-17T10:06:47.841Z,21.90
2023-04-17T10:09:33.435Z,23.25
2023-04-17T10:12:20.282Z,23.38
2023-04-17T10:15:07.707Z,25.20
2023-04-17T10:17:56.281Z,23.65
2023-04-17T10:20:44.697Z,24.35
2023-04-17T10:23:34.633Z,24.00
2023-04-17T10:26:26.094Z,22.77
2023-04-17T10:29:12.778Z,20.42
2023-04-17T10:32:10.593Z,21.85
2023-04-17T10:34:57.169Z,21.70
2023-04-17T10:37:50.041Z,24.95
2023-04-17T10:40:37.128Z,24.23
2023-04-17T10:43:23.547Z,24.88
2023-04-17T10:46:14.177Z,23.63
2023-04-17T10:49:04.046Z,25.90
2023-04-17T10:51:49.615Z,26.45
2023-04-17T10:54:35.097Z,22.52
2023-04-17T10:57:53.444Z,22.15
2023-04-17T11:00:50.275Z,24.17
2023-04-17T11:03:39.756Z,22.10
2023-04-17T11:06:31.187Z,23.70
2023-04-17T11:09:19.833Z,23.70
2023-04-17T11:12:05.537Z,22.63
2023-04-17T11:14:50.687Z,23.45
2023-04-17T11:17:41.538Z,23.73
2023-04-17T11:20:30.058Z,20.48
2023-04-17T11:23:16.307Z,21.35
2023-04-17T11:26:01.757Z,20.67
2023-04-17T11:28:47.910Z,19.55
2023-04-17T11:31:34.154Z,20.00
2023-04-17T11:34:20.310Z,21.90
2023-04-17T11:37:05.702Z,21.88
2023-04-17T11:39:51.255Z,19.33
2023-04-17T11:42:43.902Z,20.52
2023-04-17T11:45:32.454Z,22.63
2023-04-17T11:48:22.566Z,21.92
2023-04-17T11:51:08.479Z,21.48
2023-04-17T11:53:55.570Z,23.95
2023-04-17T11:56:40.556Z,23.25
2023-04-17T11:59:39.825Z,21.80
2023-04-17T12:02:33.385Z,21.33
2023-04-17T12:05:19.866Z,22.08
2023-04-17T12:08:07.352Z,22.90
2023-04-17T12:10:52.740Z,24.05
2023-04-17T12:13:38.083Z,23.55
2023-04-17T12:16:24.971Z,23.38
2023-04-17T12:19:13.073Z,24.15
2023-04-17T12:21:59.085Z,24.05
2023-04-17T12:24:44.843Z,23.70
2023-04-17T12:27:36.415Z,24.20
2023-04-17T12:30:21.995Z,22.20
2023-04-17T12:33:07.402Z,26.52
2023-04-17T12:35:53.155Z,23.80
2023-04-17T12:38:38.606Z,25.00
2023-04-17T12:41:26.458Z,25.65
2023-04-17T12:44:12.086Z,25.73
2023-04-17T12:46:57.414Z,25.70
2023-04-17T12:49:42.957Z,25.50
2023-04-17T12:52:28.561Z,24.17
2023-04-17T12:55:14.261Z,25.13
2023-04-17T12:57:59.437Z,24.38
2023-04-17T13:00:45.390Z,25.75
2023-04-17T13:03:31.014Z,24.10
2023-04-17T13:06:16.776Z,27.52
2023-04-17T13:09:02.013Z,23.85
2023-04-17T13:11:47.602Z,27.35
2023-04-17T13:14:33.021Z,23.35
2023-04-17T13:17:18.608Z,22.92
2023-04-17T13:20:04.378Z,24.70
2023-04-17T13:22:49.939Z,23.88
2023-04-17T13:25:35.531Z,24.10
2023-04-17T13:28:20.881Z,24.98
2023-04-17T13:31:06.602Z,24.73
2023-04-17T13:33:52.238Z,25.20
2023-04-17T13:36:37.866Z,29.90
2023-04-17T13:39:23.539Z,24.40
2023-04-17T13:42:09.653Z,24.20
2023-04-17T13:44:55.546Z,25.00
2023-04-17T13:47:41.057Z,23.63
2023-04-17T13:50:26.531Z,24.33
2023-04-17T13:53:13.378Z,22.27
2023-04-17T13:55:58.798Z,23.25
2023-04-17T13:58:44.498Z,23.92
2023-04-17T14:01:29.867Z,22.35
2023-04-17T14:04:15.418Z,24.10
2023-04-17T14:07:01.234Z,23.10
2023-04-17T14:09:46.439Z,23.83
2023-04-17T14:12:32.345Z,24.58
2023-04-17T14:15:17.933Z,22.35
2023-04-17T14:18:03.505Z,21.80
2023-04-17T14:20:48.858Z,22.55
2023-04-17T14:23:34.326Z,23.05
2023-04-17T14:26:19.975Z,22.58
2023-04-17T14:29:05.693Z,22.52
2023-04-17T14:31:52.151Z,25.88
2023-04-17T14:34:37.589Z,19.23
2023-04-17T14:37:23.070Z,22.48
2023-04-17T14:40:08.796Z,20.40
2023-04-17T14:42:54.935Z,21.48
2023-04-17T14:45:40.677Z,23.85
2023-04-17T14:48:26.210Z,20.88
2023-04-17T14:51:14.306Z,22.80
2023-04-17T14:53:59.667Z,22.50
2023-04-17T14:56:45.394Z,18.75
2023-04-17T14:59:30.984Z,20.95
2023-04-17T15:02:16.563Z,21.48
2023-04-17T15:05:01.988Z,18.27
2023-04-17T15:07:47.942Z,19.80
2023-04-17T15:10:44.206Z,19.83
2023-04-17T15:13:35.881Z,18.83
2023-04-17T15:16:21.504Z,21.20
2023-04-17T15:19:06.832Z,23.17
2023-04-17T15:21:52.772Z,23.45
2023-04-17T15:24:37.966Z,20.48
2023-04-17T15:27:23.478Z,20.23
2023-04-17T15:30:09.361Z,19.73
2023-04-17T15:32:54.866Z,21.23
2023-04-17T15:35:40.224Z,18.38
2023-04-17T15:38:26.572Z,19.38
2023-04-17T15:41:12.310Z,19.83
2023-04-17T15:43:57.664Z,19.05
2023-04-17T15:46:43.198Z,18.10
2023-04-17T15:49:29.734Z,18.63
2023-04-17T15:52:15.146Z,18.85
2023-04-17T15:55:00.599Z,17.58
2023-04-17T15:57:46.296Z,17.13
2023-04-17T16:00:31.596Z,18.75
2023-04-17T16:03:17.119Z,20.10
2023-04-17T16:06:03.596Z,21.10
2023-04-17T16:08:49.043Z,18.35
2023-04-17T16:11:34.321Z,18.38
2023-04-17T16:14:20.044Z,20.27
2023-04-17T16:17:05.972Z,19.05
2023-04-17T16:19:51.304Z,20.63
2023-04-17T16:22:37.099Z,20.83
2023-04-17T16:25:22.424Z,20.58
2023-04-17T16:28:08.046Z,20.63
2023-04-17T16:30:53.077Z,21.02
2023-04-17T16:33:39.615Z,21.38
2023-04-17T16:36:25.862Z,19.33
2023-04-17T16:39:11.599Z,22.20
2023-04-17T16:41:57.696Z,21.80
2023-04-17T16:44:45.689Z,21.35
2023-04-17T16:47:31.506Z,21.10
2023-04-17T16:50:17.421Z,21.15
2023-04-17T16:53:02.750Z,20.48
2023-04-17T16:55:48.318Z,23.85
2023-04-17T16:58:33.497Z,20.55
2023-04-17T17:01:19.174Z,20.00
2023-04-17T17:04:05.187Z,19.52
2023-04-17T17:06:50.775Z,21.52
2023-04-17T17:09:36.162Z,22.67
2023-04-17T17:12:21.723Z,24.95
2023-04-17T17:15:07.864Z,21.92
2023-04-17T17:17:53.580Z,24.27
2023-04-17T17:20:38.911Z,22.20
2023-04-17T17:23:24.409Z,23.52
2023-04-17T17:26:09.734Z,22.08
2023-04-17T17:28:55.933Z,23.90
2023-04-17T17:31:41.228Z,24.35
2023-04-17T17:34:27.433Z,23.80
2023-04-17T17:37:12.953Z,24.02
2023-04-17T17:39:58.463Z,24.05
2023-04-17T17:42:45.152Z,25.17
2023-04-17T17:45:30.641Z,23.77
2023-04-17T17:48:18.022Z,25.30
2023-04-17T17:51:03.283Z,23.63
2023-04-17T17:53:49.088Z,25.23
2023-04-17T17:56:34.996Z,26.23
2023-04-17T17:59:21.393Z,24.83
2023-04-17T18:02:06.978Z,26.42
2023-04-17T18:04:52.596Z,23.73
2023-04-17T18:07:38.251Z,26.85
2023-04-17T18:10:23.669Z,25.70
2023-04-17T18:13:09.306Z,26.92
2023-04-17T18:15:55.152Z,25.80
2023-04-17T18:18:40.666Z,25.80
2023-04-17T18:21:27.356Z,25.85
2023-04-17T18:24:12.986Z,24.42
2023-04-17T18:26:58.256Z,24.48
2023-04-17T18:29:43.785Z,29.48
2023-04-17T18:32:30.989Z,26.40
2023-04-17T18:35:16.499Z,26.65
2023-04-17T18:38:02.392Z,26.25
2023-04-17T18:40:47.554Z,25.85
2023-04-17T18:43:33.301Z,25.88
2023-04-17T18:46:18.604Z,27.00
2023-04-17T18:49:04.380Z,25.77
2023-04-17T18:51:50.116Z,26.17
2023-04-17T18:54:35.573Z,25.60
2023-04-17T18:57:20.807Z,26.63
2023-04-17T19:00:06.780Z,27.77
2023-04-17T19:02:52.293Z,25.63
2023-04-17T19:05:37.901Z,28.25
2023-04-17T19:08:23.093Z,27.50
2023-04-17T19:11:08.648Z,28.23
2023-04-17T19:13:54.526Z,28.77
2023-04-17T19:16:39.886Z,29.45
2023-04-17T19:19:25.278Z,29.55
2023-04-17T19:22:10.993Z,28.90
2023-04-17T19:24:56.658Z,27.67
2023-04-17T19:27:42.007Z,30.63
2023-04-17T19:30:27.302Z,26.90
2023-04-17T19:33:12.737Z,26.38
2023-04-17T19:35:58.624Z,27.30
2023-04-17T19:38:44.179Z,29.35
2023-04-17T19:41:29.784Z,27.08
2023-04-17T19:44:15.322Z,24.15
2023-04-17T19:47:01.185Z,26.38
2023-04-17T19:49:46.356Z,26.13
2023-04-17T19:52:31.914Z,24.08
2023-04-17T19:55:17.543Z,26.27
2023-04-17T19:58:03.095Z,24.13
2023-04-17T20:00:48.644Z,25.17
2023-04-17T20:03:35.622Z,24.50
2023-04-17T20:06:21.093Z,21.65
2023-04-17T20:09:06.693Z,23.60
2023-04-17T20:11:52.265Z,24.58
2023-04-17T20:14:37.822Z,24.17
2023-04-17T20:17:23.184Z,26.05
2023-04-17T20:20:09.125Z,26.65
2023-04-17T20:22:54.367Z,24.05
2023-04-17T20:25:40.150Z,22.52
2023-04-17T20:28:28.548Z,25.35
2023-04-17T20:31:14.357Z,21.98
2023-04-17T20:33:59.841Z,22.55
2023-04-17T20:36:45.648Z,23.17
2023-04-17T20:39:30.676Z,26.02
2023-04-17T20:42:16.167Z,25.60
2023-04-17T20:45:01.521Z,22.67
2023-04-17T20:47:56.609Z,23.63
2023-04-17T20:50:42.840Z,24.83
2023-04-17T20:53:28.368Z,23.63
2023-04-17T20:56:13.770Z,25.48
2023-04-17T20:58:59.163Z,24.42
2023-04-17T21:01:44.769Z,23.33
2023-04-17T21:04:30.483Z,23.95
2023-04-17T21:07:16.778Z,20.85
2023-04-17T21:10:02.658Z,22.77
2023-04-17T21:12:47.930Z,19.83
2023-04-17T21:15:33.270Z,20.23
2023-04-17T21:18:18.849Z,21.95
2023-04-17T21:21:04.430Z,22.98
2023-04-17T21:23:49.782Z,22.38
2023-04-17T21:26:35.641Z,22.92
2023-04-17T21:29:20.852Z,23.05
2023-04-17T21:32:06.881Z,24.23
2023-04-17T21:34:52.345Z,22.75
2023-04-17T21:37:37.739Z,24.17
2023-04-17T21:40:23.286Z,24.98
2023-04-17T21:43:08.581Z,24.50
2023-04-17T21:45:56.901Z,25.55
2023-04-17T21:48:42.497Z,26.02
2023-04-17T21:51:27.852Z,23.65
2023-04-17T21:54:13.861Z,25.88
2023-04-17T21:57:00.291Z,26.70
2023-04-17T21:59:45.406Z,30.75
2023-04-17T22:02:31.743Z,26.42
2023-04-17T22:05:17.574Z,23.60
2023-04-17T22:08:03.104Z,27.05
2023-04-17T22:10:48.489Z,26.63
2023-04-17T22:13:33.928Z,27.45
2023-04-17T22:16:19.598Z,27.42
2023-04-17T22:19:05.017Z,25.63
2023-04-17T22:21:50.937Z,26.48
2023-04-17T22:24:36.577Z,24.83
2023-04-17T22:27:21.709Z,30.48
2023-04-17T22:30:07.626Z,25.25
2023-04-17T22:32:53.224Z,28.77
2023-04-17T22:35:39.006Z,30.92
2023-04-17T22:38:24.550Z,27.13
2023-04-17T22:41:09.899Z,29.20
2023-04-17T22:43:55.430Z,27.70
2023-04-17T22:46:40.916Z,24.30
2023-04-17T22:49:26.399Z,26.27
2023-04-17T22:52:11.679Z,24.80
2023-04-17T22:54:57.224Z,25.63
2023-04-17T22:57:42.653Z,26.05
2023-04-17T23:00:28.166Z,24.67
2023-04-17T23:03:14.112Z,27.25
2023-04-17T23:05:59.596Z,21.55
2023-04-17T23:08:45.212Z,27.30
2023-04-17T23:11:34.175Z,20.83
2023-04-17T23:14:19.677Z,21.25
2023-04-17T23:17:05.925Z,20.13
2023-04-17T23:19:51.601Z,19.98
2023-04-17T23:22:37.226Z,24.05
2023-04-17T23:25:22.531Z,19.13
2023-04-17T23:28:08.608Z,19.98
2023-04-17T23:30:54.107Z,19.15
2023-04-17T23:33:39.609Z,19.45
2023-04-17T23:36:25.618Z,18.60
2023-04-17T23:39:11.100Z,18.55
2023-04-17T23:41:57.534Z,22.70
2023-04-17T23:44:42.955Z,16.50
2023-04-17T23:47:28.632Z,17.80
2023-04-17T23:50:14.157Z,15.60
2023-04-17T23:52:59.696Z,18.30
2023-04-17T23:55:45.368Z,15.65
2023-04-17T23:58:30.742Z,16.75
